sensor_id;sensor_type;location;lat;lon;timestamp;pressure;altitude;pressure_sealevel;temperature;humidity
67931;BME280;63902;52.000;5.954;2023-10-13T00:00:54;100762.69;;;15.97;100.00
67931;BME280;63902;52.000;5.954;2023-10-13T00:01:56;100768.88;;;15.98;100.00
67931;BME280;63902;52.000;5.954;2023-10-13T00:02:57;100765.25;;;15.99;100.00
67931;BME280;63902;52.000;5.954;2023-10-13T00:03:57;100747.13;;;15.89;100.00
67931;BME280;63902;52.000;5.954;2023-10-13T00:04:58;100764.31;;;16.00;100.00
67931;BME280;63902;52.000;5.954;2023-10-13T00:05:58;100743.47;;;15.91;100.00
67931;BME280;63902;52.000;5.954;2023-10-13T00:06:59;100759.91;;;15.99;100.00
67931;BME280;63902;52.000;5.954;2023-10-13T00:08:00;100757.22;;;15.99;100.00
67931;BME280;63902;52.000;5.954;2023-10-13T00:09:00;100753.03;;;15.95;100.00
67931;BME280;63902;52.000;5.954;2023-10-13T00:10:01;100754.53;;;15.99;100.00
67931;BME280;63902;52.000;5.954;2023-10-13T00:11:01;100754.47;;;16.00;100.00
67931;BME280;63902;52.000;5.954;2023-10-13T00:12:03;100758.97;;;16.00;100.00
67931;BME280;63902;52.000;5.954;2023-10-13T00:13:05;100755.31;;;16.01;100.00
67931;BME280;63902;52.000;5.954;2023-10-13T00:14:06;100749.13;;;16.00;100.00
67931;BME280;63902;52.000;5.954;2023-10-13T00:15:06;100747.28;;;16.01;100.00
67931;BME280;63902;52.000;5.954;2023-10-13T00:16:07;100755.31;;;16.01;100.00
67931;BME280;63902;52.000;5.954;2023-10-13T00:17:09;100739.88;;;15.92;100.00
67931;BME280;63902;52.000;5.954;2023-10-13T00:18:09;100761.50;;;16.01;100.00
67931;BME280;63902;52.000;5.954;2023-10-13T00:19:10;100733.88;;;15.88;100.00
67931;BME280;63902;52.000;5.954;2023-10-13T00:20:11;100757.03;;;16.02;100.00
67931;BME280;63902;52.000;5.954;2023-10-13T00:21:11;100754.34;;;16.02;100.00
67931;BME280;63902;52.000;5.954;2023-10-13T00:22:13;100751.66;;;16.02;100.00
67931;BME280;63902;52.000;5.954;2023-10-13T00:23:14;100722.69;;;15.81;100.00
67931;BME280;63902;52.000;5.954;2023-10-13T00:24:14;100749.13;;;16.00;100.00
67931;BME280;63902;52.000;5.954;2023-10-13T00:25:15;100742.72;;;16.03;100.00
67931;BME280;63902;52.000;5.954;2023-10-13T00:26:15;100748.06;;;16.03;100.00
67931;BME280;63902;52.000;5.954;2023-10-13T00:27:17;100749.88;;;16.02;100.00
67931;BME280;63902;52.000;5.954;2023-10-13T00:28:19;100750.81;;;16.01;100.00
67931;BME280;63902;52.000;5.954;2023-10-13T00:29:20;100735.94;;;15.97;100.00
67931;BME280;63902;52.000;5.954;2023-10-13T00:30:20;100740.97;;;16.02;100.00
67931;BME280;63902;52.000;5.954;2023-10-13T00:31:21;100747.22;;;16.02;100.00
67931;BME280;63902;52.000;5.954;2023-10-13T00:32:21;100743.66;;;16.02;100.00
67931;BME280;63902;52.000;5.954;2023-10-13T00:33:22;100734.03;;;15.99;100.00
67931;BME280;63902;52.000;5.954;2023-10-13T00:34:22;100733.91;;;16.01;100.00
67931;BME280;63902;52.000;5.954;2023-10-13T00:35:23;100730.38;;;16.00;100.00
67931;BME280;63902;52.000;5.954;2023-10-13T00:36:23;100731.25;;;16.01;100.00
67931;BME280;63902;52.000;5.954;2023-10-13T00:37:24;100734.88;;;16.00;100.00
67931;BME280;63902;52.000;5.954;2023-10-13T00:38:24;100730.38;;;16.00;100.00
67931;BME280;63902;52.000;5.954;2023-10-13T00:39:25;100737.56;;;16.00;100.00
67931;BME280;63902;52.000;5.954;2023-10-13T00:40:25;100736.72;;;15.99;100.00
67931;BME280;63902;52.000;5.954;2023-10-13T00:41:26;100738.41;;;16.00;100.00
67931;BME280;63902;52.000;5.954;2023-10-13T00:42:26;100739.19;;;16.02;100.00
67931;BME280;63902;52.000;5.954;2023-10-13T00:43:28;100739.06;;;16.04;100.00
67931;BME280;63902;52.000;5.954;2023-10-13T00:44:28;100728.34;;;16.04;100.00
67931;BME280;63902;52.000;5.954;2023-10-13T00:45:30;100727.91;;;15.97;100.00
67931;BME280;63902;52.000;5.954;2023-10-13T00:46:34;100732.84;;;16.03;100.00
67931;BME280;63902;52.000;5.954;2023-10-13T00:47:36;100735.53;;;16.03;100.00
67931;BME280;63902;52.000;5.954;2023-10-13T00:48:38;100738.22;;;16.03;100.00
67931;BME280;63902;52.000;5.954;2023-10-13T00:49:39;100732.84;;;16.03;100.00
67931;BME280;63902;52.000;5.954;2023-10-13T00:50:40;100737.34;;;16.03;100.00
67931;BME280;63902;52.000;5.954;2023-10-13T00:51:41;100731.16;;;16.02;100.00
67931;BME280;63902;52.000;5.954;2023-10-13T00:52:43;100732.84;;;16.03;100.00
67931;BME280;63902;52.000;5.954;2023-10-13T00:53:44;100723.22;;;16.01;100.00
67931;BME280;63902;52.000;5.954;2023-10-13T00:54:45;100732.00;;;16.03;100.00
67931;BME280;63902;52.000;5.954;2023-10-13T00:55:45;100723.97;;;16.03;100.00
67931;BME280;63902;52.000;5.954;2023-10-13T00:56:46;100721.31;;;16.03;100.00
67931;BME280;63902;52.000;5.954;2023-10-13T00:57:49;100728.47;;;16.02;100.00
67931;BME280;63902;52.000;5.954;2023-10-13T00:58:53;100718.25;;;15.95;100.00
67931;BME280;63902;52.000;5.954;2023-10-13T00:59:55;100724.91;;;16.02;100.00
67931;BME280;63902;52.000;5.954;2023-10-13T01:00:56;100730.25;;;16.02;100.00
67931;BME280;63902;52.000;5.954;2023-10-13T01:01:56;100719.56;;;16.02;100.00
67931;BME280;63902;52.000;5.954;2023-10-13T01:02:57;100715.09;;;16.02;100.00
67931;BME280;63902;52.000;5.954;2023-10-13T01:03:57;100667.91;;;15.74;100.00
67931;BME280;63902;52.000;5.954;2023-10-13T01:04:58;100715.84;;;16.04;100.00
67931;BME280;63902;52.000;5.954;2023-10-13T01:05:58;100714.03;;;16.05;100.00
67931;BME280;63902;52.000;5.954;2023-10-13T01:06:59;100696.00;;;15.94;100.00
67931;BME280;63902;52.000;5.954;2023-10-13T01:08:00;100702.97;;;15.97;100.00
67931;BME280;63902;52.000;5.954;2023-10-13T01:09:02;100705.25;;;16.03;100.00
67931;BME280;63902;52.000;5.954;2023-10-13T01:10:03;100704.41;;;16.02;100.00
67931;BME280;63902;52.000;5.954;2023-10-13T01:11:03;100707.94;;;16.03;100.00
67931;BME280;63902;52.000;5.954;2023-10-13T01:12:04;100690.66;;;15.94;100.00
67931;BME280;63902;52.000;5.954;2023-10-13T01:13:05;100708.88;;;16.02;100.00
67931;BME280;63902;52.000;5.954;2023-10-13T01:14:07;100705.25;;;16.03;100.00
67931;BME280;63902;52.000;5.954;2023-10-13T01:15:08;100706.19;;;16.02;100.00
67931;BME280;63902;52.000;5.954;2023-10-13T01:16:08;100703.50;;;16.02;100.00
67931;BME280;63902;52.000;5.954;2023-10-13T01:17:09;100698.38;;;15.99;100.00
67931;BME280;63902;52.000;5.954;2023-10-13T01:18:10;100694.75;;;16.00;100.00
67931;BME280;63902;52.000;5.954;2023-10-13T01:19:10;100696.56;;;15.99;100.00
67931;BME280;63902;52.000;5.954;2023-10-13T01:20:11;100693.22;;;15.96;100.00
67931;BME280;63902;52.000;5.954;2023-10-13T01:21:11;100701.81;;;16.01;100.00
67931;BME280;63902;52.000;5.954;2023-10-13T01:22:12;100701.94;;;15.99;100.00
67931;BME280;63902;52.000;5.954;2023-10-13T01:23:14;100700.09;;;16.00;100.00
67931;BME280;63902;52.000;5.954;2023-10-13T01:24:14;100701.03;;;15.99;100.00
67931;BME280;63902;52.000;5.954;2023-10-13T01:25:15;100697.50;;;15.98;100.00
67931;BME280;63902;52.000;5.954;2023-10-13T01:26:15;100683.13;;;15.86;100.00
67931;BME280;63902;52.000;5.954;2023-10-13T01:27:16;100697.44;;;16.00;100.00
67931;BME280;63902;52.000;5.954;2023-10-13T01:28:17;100691.31;;;15.98;100.00
67931;BME280;63902;52.000;5.954;2023-10-13T01:29:17;100688.63;;;15.98;100.00
67931;BME280;63902;52.000;5.954;2023-10-13T01:30:18;100693.00;;;15.99;100.00
67931;BME280;63902;52.000;5.954;2023-10-13T01:31:18;100688.63;;;15.98;100.00
67931;BME280;63902;52.000;5.954;2023-10-13T01:32:20;100675.69;;;15.92;100.00
67931;BME280;63902;52.000;5.954;2023-10-13T01:33:21;100687.03;;;15.95;100.00
67931;BME280;63902;52.000;5.954;2023-10-13T01:34:21;100682.53;;;15.96;100.00
67931;BME280;63902;52.000;5.954;2023-10-13T01:35:22;100687.03;;;15.95;100.00
67931;BME280;63902;52.000;5.954;2023-10-13T01:36:23;100686.94;;;15.97;100.00
67931;BME280;63902;52.000;5.954;2023-10-13T01:37:23;100682.53;;;15.96;100.00
67931;BME280;63902;52.000;5.954;2023-10-13T01:38:25;100684.25;;;15.97;100.00
67931;BME280;63902;52.000;5.954;2023-10-13T01:39:26;100686.81;;;15.98;100.00
67931;BME280;63902;52.000;5.954;2023-10-13T01:40:26;100664.22;;;15.89;100.00
67931;BME280;63902;52.000;5.954;2023-10-13T01:41:27;100669.91;;;15.98;100.00
67931;BME280;63902;52.000;5.954;2023-10-13T01:42:27;100666.25;;;15.99;100.00
67931;BME280;63902;52.000;5.954;2023-10-13T01:43:28;100666.69;;;15.93;100.00
67931;BME280;63902;52.000;5.954;2023-10-13T01:44:28;100671.63;;;15.99;100.00
67931;BME280;63902;52.000;5.954;2023-10-13T01:45:29;100668.09;;;15.98;100.00
67931;BME280;63902;52.000;5.954;2023-10-13T01:46:29;100663.06;;;15.94;100.00
67931;BME280;63902;52.000;5.954;2023-10-13T01:47:30;100659.97;;;16.00;100.00
67931;BME280;63902;52.000;5.954;2023-10-13T01:48:30;100660.91;;;15.99;100.00
67931;BME280;63902;52.000;5.954;2023-10-13T01:49:31;100655.69;;;15.97;100.00
67931;BME280;63902;52.000;5.954;2023-10-13T01:50:31;100669.72;;;16.01;100.00
67931;BME280;63902;52.000;5.954;2023-10-13T01:51:32;100662.53;;;16.01;100.00
67931;BME280;63902;52.000;5.954;2023-10-13T01:52:32;100662.53;;;16.01;100.00
67931;BME280;63902;52.000;5.954;2023-10-13T01:53:34;100659.84;;;16.01;100.00
67931;BME280;63902;52.000;5.954;2023-10-13T01:54:35;100653.66;;;16.01;100.00
67931;BME280;63902;52.000;5.954;2023-10-13T01:55:35;100658.16;;;16.00;100.00
67931;BME280;63902;52.000;5.954;2023-10-13T01:56:35;100659.00;;;16.01;100.00
67931;BME280;63902;52.000;5.954;2023-10-13T01:57:36;100645.75;;;15.99;100.00
67931;BME280;63902;52.000;5.954;2023-10-13T01:58:38;100647.44;;;16.00;100.00
67931;BME280;63902;52.000;5.954;2023-10-13T01:59:38;100636.50;;;15.91;100.00
67931;BME280;63902;52.000;5.954;2023-10-13T02:00:39;100641.25;;;16.00;100.00
67931;BME280;63902;52.000;5.954;2023-10-13T02:01:39;100641.25;;;16.00;100.00
67931;BME280;63902;52.000;5.954;2023-10-13T02:02:40;100637.72;;;15.99;100.00
67931;BME280;63902;52.000;5.954;2023-10-13T02:03:40;100626.56;;;15.93;100.00
67931;BME280;63902;52.000;5.954;2023-10-13T02:04:41;100637.59;;;16.01;100.00
67931;BME280;63902;52.000;5.954;2023-10-13T02:05:42;100634.06;;;16.00;100.00
67931;BME280;63902;52.000;5.954;2023-10-13T02:06:42;100636.75;;;16.00;100.00
67931;BME280;63902;52.000;5.954;2023-10-13T02:07:43;100637.72;;;15.99;100.00
67931;BME280;63902;52.000;5.954;2023-10-13T02:08:45;100634.16;;;15.99;100.00
67931;BME280;63902;52.000;5.954;2023-10-13T02:09:45;100635.91;;;16.00;100.00
67931;BME280;63902;52.000;5.954;2023-10-13T02:10:46;100635.91;;;16.00;100.00
67931;BME280;63902;52.000;5.954;2023-10-13T02:11:46;100630.63;;;15.98;100.00
67931;BME280;63902;52.000;5.954;2023-10-13T02:12:47;100602.47;;;15.80;100.00
67931;BME280;63902;52.000;5.954;2023-10-13T02:13:47;100627.09;;;15.98;100.00
67931;BME280;63902;52.000;5.954;2023-10-13T02:14:47;100628.81;;;15.99;100.00
67931;BME280;63902;52.000;5.954;2023-10-13T02:15:48;100628.81;;;15.99;100.00
67931;BME280;63902;52.000;5.954;2023-10-13T02:16:49;100625.28;;;15.98;100.00
67931;BME280;63902;52.000;5.954;2023-10-13T02:17:49;100630.63;;;15.98;100.00
67931;BME280;63902;52.000;5.954;2023-10-13T02:18:50;100620.06;;;15.97;100.00
67931;BME280;63902;52.000;5.954;2023-10-13T02:19:50;100628.81;;;15.99;100.00
67931;BME280;63902;52.000;5.954;2023-10-13T02:20:51;100627.03;;;15.99;100.00
67931;BME280;63902;52.000;5.954;2023-10-13T02:21:51;100624.22;;;16.01;100.00
67931;BME280;63902;52.000;5.954;2023-10-13T02:22:52;100621.56;;;16.01;100.00
67931;BME280;63902;52.000;5.954;2023-10-13T02:23:54;100627.75;;;16.01;100.00
67931;BME280;63902;52.000;5.954;2023-10-13T02:24:54;100632.25;;;16.01;100.00
67931;BME280;63902;52.000;5.954;2023-10-13T02:25:55;100629.56;;;16.01;100.00
67931;BME280;63902;52.000;5.954;2023-10-13T02:26:56;100621.56;;;16.01;100.00
67931;BME280;63902;52.000;5.954;2023-10-13T02:27:56;100626.91;;;16.01;100.00
67931;BME280;63902;52.000;5.954;2023-10-13T02:28:58;100619.84;;;16.00;100.00
67931;BME280;63902;52.000;5.954;2023-10-13T02:29:58;100623.25;;;16.02;100.00
67931;BME280;63902;52.000;5.954;2023-10-13T02:31:02;100624.13;;;16.02;100.00
67931;BME280;63902;52.000;5.954;2023-10-13T02:32:03;100610.97;;;15.99;100.00
67931;BME280;63902;52.000;5.954;2023-10-13T02:33:04;100615.22;;;16.02;100.00
67931;BME280;63902;52.000;5.954;2023-10-13T02:34:05;100618.88;;;16.01;100.00
67931;BME280;63902;52.000;5.954;2023-10-13T02:35:06;100607.31;;;16.00;100.00
67931;BME280;63902;52.000;5.954;2023-10-13T02:36:06;100608.19;;;16.01;100.00
67931;BME280;63902;52.000;5.954;2023-10-13T02:37:07;100604.66;;;16.00;100.00
67931;BME280;63902;52.000;5.954;2023-10-13T02:38:07;100602.06;;;15.99;100.00
67931;BME280;63902;52.000;5.954;2023-10-13T02:39:09;100610.00;;;16.00;100.00
67931;BME280;63902;52.000;5.954;2023-10-13T02:40:11;100603.88;;;15.98;100.00
67931;BME280;63902;52.000;5.954;2023-10-13T02:41:12;100599.38;;;15.99;100.00
67931;BME280;63902;52.000;5.954;2023-10-13T02:42:12;100593.09;;;16.00;100.00
67931;BME280;63902;52.000;5.954;2023-10-13T02:43:13;100597.59;;;15.99;100.00
67931;BME280;63902;52.000;5.954;2023-10-13T02:44:14;100591.38;;;15.99;100.00
67931;BME280;63902;52.000;5.954;2023-10-13T02:45:14;100581.63;;;15.98;100.00
67931;BME280;63902;52.000;5.954;2023-10-13T02:46:15;100587.97;;;15.97;100.00
67931;BME280;63902;52.000;5.954;2023-10-13T02:47:15;100585.06;;;16.00;100.00
67931;BME280;63902;52.000;5.954;2023-10-13T02:48:16;100582.41;;;16.00;100.00
67931;BME280;63902;52.000;5.954;2023-10-13T02:49:16;100577.03;;;16.00;100.00
67931;BME280;63902;52.000;5.954;2023-10-13T02:50:17;100575.31;;;15.99;100.00
67931;BME280;63902;52.000;5.954;2023-10-13T02:51:17;100580.66;;;15.99;100.00
67931;BME280;63902;52.000;5.954;2023-10-13T02:52:17;100578.97;;;15.98;100.00
67931;BME280;63902;52.000;5.954;2023-10-13T02:53:18;100579.81;;;15.98;100.00
67931;BME280;63902;52.000;5.954;2023-10-13T02:54:20;100572.00;;;15.95;100.00
67931;BME280;63902;52.000;5.954;2023-10-13T02:55:20;100578.09;;;15.97;100.00
67931;BME280;63902;52.000;5.954;2023-10-13T02:56:21;100560.09;;;15.86;100.00
67931;BME280;63902;52.000;5.954;2023-10-13T02:57:21;100570.16;;;15.96;100.00
67931;BME280;63902;52.000;5.954;2023-10-13T02:58:22;100565.03;;;15.93;100.00
67931;BME280;63902;52.000;5.954;2023-10-13T02:59:22;100567.50;;;15.96;100.00
67931;BME280;63902;52.000;5.954;2023-10-13T03:00:23;100571.16;;;15.95;100.00
67931;BME280;63902;52.000;5.954;2023-10-13T03:01:23;100566.75;;;15.94;100.00
67931;BME280;63902;52.000;5.954;2023-10-13T03:02:24;100562.25;;;15.94;100.00
67931;BME280;63902;52.000;5.954;2023-10-13T03:03:24;100559.59;;;15.94;100.00
67931;BME280;63902;52.000;5.954;2023-10-13T03:04:25;100559.69;;;15.93;100.00
67931;BME280;63902;52.000;5.954;2023-10-13T03:05:25;100557.97;;;15.92;100.00
67931;BME280;63902;52.000;5.954;2023-10-13T03:06:26;100560.66;;;15.92;100.00
67931;BME280;63902;52.000;5.954;2023-10-13T03:07:27;100557.97;;;15.92;100.00
67931;BME280;63902;52.000;5.954;2023-10-13T03:08:27;100561.59;;;15.91;100.00
67931;BME280;63902;52.000;5.954;2023-10-13T03:09:29;100561.59;;;15.91;100.00
67931;BME280;63902;52.000;5.954;2023-10-13T03:10:29;100547.69;;;15.85;100.00
67931;BME280;63902;52.000;5.954;2023-10-13T03:11:30;100520.28;;;15.69;100.00
67931;BME280;63902;52.000;5.954;2023-10-13T03:12:30;100557.34;;;15.88;100.00
67931;BME280;63902;52.000;5.954;2023-10-13T03:13:31;100551.09;;;15.87;100.00
67931;BME280;63902;52.000;5.954;2023-10-13T03:14:31;100551.09;;;15.87;100.00
67931;BME280;63902;52.000;5.954;2023-10-13T03:15:32;100532.47;;;15.73;100.00
67931;BME280;63902;52.000;5.954;2023-10-13T03:16:32;100548.44;;;15.87;100.00
67931;BME280;63902;52.000;5.954;2023-10-13T03:17:33;100548.44;;;15.87;100.00
67931;BME280;63902;52.000;5.954;2023-10-13T03:18:33;100544.06;;;15.86;100.00
67931;BME280;63902;52.000;5.954;2023-10-13T03:19:34;100545.75;;;15.87;100.00
67931;BME280;63902;52.000;5.954;2023-10-13T03:20:38;100541.38;;;15.86;100.00
67931;BME280;63902;52.000;5.954;2023-10-13T03:21:38;100533.34;;;15.86;100.00
67931;BME280;63902;52.000;5.954;2023-10-13T03:22:39;100537.00;;;15.85;100.00
67931;BME280;63902;52.000;5.954;2023-10-13T03:23:39;100531.66;;;15.85;100.00
67931;BME280;63902;52.000;5.954;2023-10-13T03:24:41;100526.31;;;15.85;100.00
67931;BME280;63902;52.000;5.954;2023-10-13T03:25:42;100523.63;;;15.85;100.00
67931;BME280;63902;52.000;5.954;2023-10-13T03:26:42;100518.38;;;15.84;100.00
67931;BME280;63902;52.000;5.954;2023-10-13T03:27:43;100518.38;;;15.84;100.00
67931;BME280;63902;52.000;5.954;2023-10-13T03:28:43;100498.38;;;15.77;100.00
67931;BME280;63902;52.000;5.954;2023-10-13T03:29:45;100506.19;;;15.80;100.00
67931;BME280;63902;52.000;5.954;2023-10-13T03:30:46;100506.91;;;15.82;100.00
67931;BME280;63902;52.000;5.954;2023-10-13T03:31:46;100508.53;;;15.84;100.00
67931;BME280;63902;52.000;5.954;2023-10-13T03:32:47;100502.53;;;15.81;100.00
67931;BME280;63902;52.000;5.954;2023-10-13T03:33:48;100503.38;;;15.81;100.00
67931;BME280;63902;52.000;5.954;2023-10-13T03:34:48;100483.47;;;15.73;100.00
67931;BME280;63902;52.000;5.954;2023-10-13T03:35:48;100491.06;;;15.79;100.00
67931;BME280;63902;52.000;5.954;2023-10-13T03:36:49;100493.66;;;15.80;100.00
67931;BME280;63902;52.000;5.954;2023-10-13T03:37:50;100489.25;;;15.79;100.00
67931;BME280;63902;52.000;5.954;2023-10-13T03:38:50;100486.59;;;15.79;100.00
67931;BME280;63902;52.000;5.954;2023-10-13T03:39:52;100457.66;;;15.59;100.00
67931;BME280;63902;52.000;5.954;2023-10-13T03:40:53;100484.88;;;15.78;100.00
67931;BME280;63902;52.000;5.954;2023-10-13T03:41:54;100479.09;;;15.72;100.00
67931;BME280;63902;52.000;5.954;2023-10-13T03:42:56;100490.22;;;15.78;100.00
67931;BME280;63902;52.000;5.954;2023-10-13T03:43:57;100487.56;;;15.78;100.00
67931;BME280;63902;52.000;5.954;2023-10-13T03:44:57;100484.88;;;15.78;100.00
67931;BME280;63902;52.000;5.954;2023-10-13T03:45:58;100487.56;;;15.78;100.00
67931;BME280;63902;52.000;5.954;2023-10-13T03:46:58;100482.19;;;15.78;100.00
67931;BME280;63902;52.000;5.954;2023-10-13T03:47:59;100482.41;;;15.75;100.00
67931;BME280;63902;52.000;5.954;2023-10-13T03:48:59;100480.38;;;15.79;100.00
67931;BME280;63902;52.000;5.954;2023-10-13T03:50:00;100477.72;;;15.79;100.00
67931;BME280;63902;52.000;5.954;2023-10-13T03:51:01;100456.75;;;15.73;100.00
67931;BME280;63902;52.000;5.954;2023-10-13T03:52:03;100462.72;;;15.76;100.00
67931;BME280;63902;52.000;5.954;2023-10-13T03:53:04;100453.09;;;15.74;100.00
67931;BME280;63902;52.000;5.954;2023-10-13T03:54:04;100459.97;;;15.78;100.00
67931;BME280;63902;52.000;5.954;2023-10-13T03:55:06;100458.13;;;15.78;100.00
67931;BME280;63902;52.000;5.954;2023-10-13T03:56:07;100473.22;;;15.79;100.00
67931;BME280;63902;52.000;5.954;2023-10-13T03:57:07;100467.84;;;15.79;100.00
67931;BME280;63902;52.000;5.954;2023-10-13T03:58:08;100449.13;;;15.79;100.00
67931;BME280;63902;52.000;5.954;2023-10-13T03:59:09;100449.13;;;15.79;100.00
67931;BME280;63902;52.000;5.954;2023-10-13T04:00:10;100445.63;;;15.79;100.00
67931;BME280;63902;52.000;5.954;2023-10-13T04:01:11;100448.19;;;15.80;100.00
67931;BME280;63902;52.000;5.954;2023-10-13T04:02:11;100442.84;;;15.80;100.00
67931;BME280;63902;52.000;5.954;2023-10-13T04:03:12;100452.56;;;15.81;100.00
67931;BME280;63902;52.000;5.954;2023-10-13T04:04:15;100436.66;;;15.80;100.00
67931;BME280;63902;52.000;5.954;2023-10-13T04:05:15;100437.38;;;15.82;100.00
67931;BME280;63902;52.000;5.954;2023-10-13T04:06:16;100440.94;;;15.82;100.00
67931;BME280;63902;52.000;5.954;2023-10-13T04:07:16;100443.63;;;15.82;100.00
67931;BME280;63902;52.000;5.954;2023-10-13T04:08:17;100435.59;;;15.82;100.00
67931;BME280;63902;52.000;5.954;2023-10-13T04:09:19;100435.59;;;15.82;100.00
67931;BME280;63902;52.000;5.954;2023-10-13T04:10:21;100420.91;;;15.75;100.00
67931;BME280;63902;52.000;5.954;2023-10-13T04:11:21;100416.88;;;15.82;100.00
67931;BME280;63902;52.000;5.954;2023-10-13T04:12:22;100417.81;;;15.81;100.00
67931;BME280;63902;52.000;5.954;2023-10-13T04:13:22;100418.66;;;15.82;100.00
67931;BME280;63902;52.000;5.954;2023-10-13T04:14:23;100425.84;;;15.81;100.00
67931;BME280;63902;52.000;5.954;2023-10-13T04:15:23;100413.31;;;15.82;100.00
67931;BME280;63902;52.000;5.954;2023-10-13T04:16:24;100419.53;;;15.82;100.00
67931;BME280;63902;52.000;5.954;2023-10-13T04:17:24;100410.53;;;15.83;100.00
67931;BME280;63902;52.000;5.954;2023-10-13T04:18:25;100415.03;;;15.83;100.00
67931;BME280;63902;52.000;5.954;2023-10-13T04:19:25;100407.88;;;15.83;100.00
67931;BME280;63902;52.000;5.954;2023-10-13T04:20:28;100406.03;;;15.84;100.00
67931;BME280;63902;52.000;5.954;2023-10-13T04:21:28;100405.97;;;15.85;100.00
67931;BME280;63902;52.000;5.954;2023-10-13T04:22:29;100407.75;;;15.85;100.00
67931;BME280;63902;52.000;5.954;2023-10-13T04:23:29;100397.94;;;15.85;100.00
67931;BME280;63902;52.000;5.954;2023-10-13T04:24:30;100395.25;;;15.85;100.00
67931;BME280;63902;52.000;5.954;2023-10-13T04:25:31;100388.19;;;15.84;100.00
67931;BME280;63902;52.000;5.954;2023-10-13T04:26:32;100397.19;;;15.83;100.00
67931;BME280;63902;52.000;5.954;2023-10-13T04:27:32;100388.31;;;15.83;100.00
67931;BME280;63902;52.000;5.954;2023-10-13T04:28:33;100389.16;;;15.83;100.00
67931;BME280;63902;52.000;5.954;2023-10-13T04:29:33;100383.81;;;15.83;100.00
67931;BME280;63902;52.000;5.954;2023-10-13T04:30:35;100376.75;;;15.82;100.00
67931;BME280;63902;52.000;5.954;2023-10-13T04:31:36;100374.94;;;15.83;100.00
67931;BME280;63902;52.000;5.954;2023-10-13T04:32:37;100375.88;;;15.82;100.00
67931;BME280;63902;52.000;5.954;2023-10-13T04:33:38;100358.66;;;15.73;100.00
67931;BME280;63902;52.000;5.954;2023-10-13T04:34:38;100372.34;;;15.81;100.00
67931;BME280;63902;52.000;5.954;2023-10-13T04:35:39;100364.31;;;15.81;100.00
67931;BME280;63902;52.000;5.954;2023-10-13T04:36:39;100358.03;;;15.82;100.00
67931;BME280;63902;52.000;5.954;2023-10-13T04:37:40;100352.03;;;15.79;100.00
67931;BME280;63902;52.000;5.954;2023-10-13T04:38:40;100358.97;;;15.81;100.00
67931;BME280;63902;52.000;5.954;2023-10-13T04:39:41;100355.44;;;15.81;100.00
67931;BME280;63902;52.000;5.954;2023-10-13T04:40:42;100359.94;;;15.80;100.00
67931;BME280;63902;52.000;5.954;2023-10-13T04:41:43;100353.63;;;15.81;100.00
67931;BME280;63902;52.000;5.954;2023-10-13T04:42:43;100344.00;;;15.79;100.00
67931;BME280;63902;52.000;5.954;2023-10-13T04:43:44;100330.53;;;15.80;100.00
67931;BME280;63902;52.000;5.954;2023-10-13T04:44:44;100333.22;;;15.80;100.00
67931;BME280;63902;52.000;5.954;2023-10-13T04:45:45;100328.72;;;15.81;100.00
67931;BME280;63902;52.000;5.954;2023-10-13T04:46:45;100326.03;;;15.81;100.00
67931;BME280;63902;52.000;5.954;2023-10-13T04:47:46;100325.19;;;15.80;100.00
67931;BME280;63902;52.000;5.954;2023-10-13T04:48:46;100321.53;;;15.81;100.00
67931;BME280;63902;52.000;5.954;2023-10-13T04:49:47;100319.84;;;15.80;100.00
67931;BME280;63902;52.000;5.954;2023-10-13T04:50:48;100314.50;;;15.80;100.00
67931;BME280;63902;52.000;5.954;2023-10-13T04:51:49;100303.03;;;15.78;100.00
67931;BME280;63902;52.000;5.954;2023-10-13T04:52:49;100308.16;;;15.81;100.00
67931;BME280;63902;52.000;5.954;2023-10-13T04:53:50;100306.56;;;15.79;100.00
67931;BME280;63902;52.000;5.954;2023-10-13T04:54:50;100305.50;;;15.81;100.00
67931;BME280;63902;52.000;5.954;2023-10-13T04:55:52;100300.16;;;15.81;100.00
67931;BME280;63902;52.000;5.954;2023-10-13T04:56:53;100304.66;;;15.81;100.00
67931;BME280;63902;52.000;5.954;2023-10-13T04:57:53;100303.66;;;15.82;100.00
67931;BME280;63902;52.000;5.954;2023-10-13T04:58:53;100277.16;;;15.66;100.00
67931;BME280;63902;52.000;5.954;2023-10-13T04:59:54;100307.22;;;15.82;100.00
67931;BME280;63902;52.000;5.954;2023-10-13T05:00:59;100300.91;;;15.83;100.00
67931;BME280;63902;52.000;5.954;2023-10-13T05:01:59;100287.63;;;15.82;100.00
67931;BME280;63902;52.000;5.954;2023-10-13T05:03:00;100260.94;;;15.69;100.00
67931;BME280;63902;52.000;5.954;2023-10-13T05:04:00;100289.22;;;15.84;100.00
67931;BME280;63902;52.000;5.954;2023-10-13T05:05:01;100296.31;;;15.85;100.00
67931;BME280;63902;52.000;5.954;2023-10-13T05:06:01;100286.91;;;15.80;100.00
67931;BME280;63902;52.000;5.954;2023-10-13T05:07:02;100296.31;;;15.85;100.00
67931;BME280;63902;52.000;5.954;2023-10-13T05:08:03;100285.47;;;15.87;100.00
67931;BME280;63902;52.000;5.954;2023-10-13T05:09:04;100281.19;;;15.84;100.00
67931;BME280;63902;52.000;5.954;2023-10-13T05:10:05;100286.09;;;15.91;100.00
67931;BME280;63902;52.000;5.954;2023-10-13T05:11:07;100284.41;;;15.89;100.00
67931;BME280;63902;52.000;5.954;2023-10-13T05:12:07;100293.19;;;15.92;100.00
67931;BME280;63902;52.000;5.954;2023-10-13T05:13:08;100266.34;;;15.80;100.00
67931;BME280;63902;52.000;5.954;2023-10-13T05:14:08;100285.78;;;15.95;100.00